createdAt,value
2023-04-02T00:01:49.756Z,73.32
2023-04-02T00:07:15.600Z,72.56
2023-04-02T00:12:19.607Z,71.91
2023-04-02T00:17:24.989Z,72.00
2023-04-02T00:22:31.643Z,72.41
2023-04-02T00:27:33.800Z,71.91
2023-04-02T00:32:36.614Z,71.46
2023-04-02T00:37:39.494Z,72.26
2023-04-02T00:42:41.852Z,71.65
2023-04-02T00:47:44.608Z,71.63
2023-04-02T00:52:51.233Z,71.51
2023-04-02T00:57:55.886Z,71.97
2023-04-02T01:03:35.336Z,71.59
2023-04-02T01:09:02.100Z,71.77
2023-04-02T01:14:38.571Z,71.82
2023-04-02T01:19:53.559Z,71.98
2023-04-02T01:24:58.259Z,71.65
2023-04-02T01:30:03.241Z,71.54
2023-04-02T01:35:06.141Z,71.48
2023-04-02T01:40:08.291Z,71.48
2023-04-02T01:45:13.937Z,71.62
2023-04-02T01:50:31.901Z,71.59
2023-04-02T01:55:52.530Z,71.78
2023-04-02T02:01:12.444Z,71.67
2023-04-02T02:06:17.827Z,71.41
2023-04-02T02:11:26.813Z,71.28
2023-04-02T02:16:32.061Z,71.09
2023-04-02T02:21:42.588Z,71.27
2023-04-02T02:26:46.375Z,71.17
2023-04-02T02:31:55.154Z,71.57
2023-04-02T02:37:08.200Z,71.85
2023-04-02T02:42:16.155Z,71.99
2023-04-02T02:47:29.573Z,72.31
2023-04-02T02:52:35.293Z,72.58
2023-04-02T02:57:43.842Z,72.37
2023-04-02T03:02:47.460Z,72.39
2023-04-02T03:07:53.373Z,72.40
2023-04-02T03:13:23.582Z,72.64
2023-04-02T03:18:42.769Z,72.82
2023-04-02T03:23:59.601Z,73.56
2023-04-02T03:29:22.711Z,74.07
2023-04-02T03:34:33.531Z,74.86
2023-04-02T03:39:46.765Z,74.76
2023-04-02T03:45:00.616Z,74.72
2023-04-02T03:50:17.596Z,75.62
2023-04-02T03:55:24.141Z,76.24
2023-04-02T04:00:48.788Z,76.33
2023-04-02T04:05:56.278Z,76.28
2023-04-02T04:11:03.521Z,76.45
2023-04-02T04:16:18.117Z,75.66
2023-04-02T04:21:30.910Z,75.52
2023-04-02T04:26:44.627Z,75.17
2023-04-02T04:31:55.374Z,74.87
2023-04-02T04:37:02.149Z,75.04
2023-04-02T04:42:07.162Z,75.17
2023-04-02T04:47:15.117Z,75.63
2023-04-02T04:52:38.953Z,76.37
2023-04-02T04:57:43.101Z,76.14
2023-04-02T05:02:50.663Z,76.54
2023-04-02T05:08:00.100Z,76.52
2023-04-02T05:13:10.859Z,75.94
2023-04-02T05:18:27.978Z,75.25
2023-04-02T05:23:37.588Z,74.32
2023-04-02T05:29:21.291Z,72.83
2023-04-02T05:34:32.269Z,71.82
2023-04-02T05:39:34.678Z,71.19
2023-04-02T05:44:50.924Z,70.66
2023-04-02T05:50:11.566Z,70.08
2023-04-02T05:55:13.681Z,69.38
2023-04-02T06:00:21.746Z,68.65
2023-04-02T06:05:44.402Z,67.96
2023-04-02T06:11:11.261Z,67.12
2023-04-02T06:16:16.173Z,65.93
2023-04-02T06:21:20.805Z,65.64
2023-04-02T06:26:40.461Z,65.53
2023-04-02T06:31:49.330Z,64.91
2023-04-02T06:36:57.460Z,64.41
2023-04-02T06:42:12.403Z,63.66
2023-04-02T06:47:38.664Z,62.96
2023-04-02T06:52:48.958Z,62.14
2023-04-02T06:57:51.144Z,60.45
2023-04-02T07:02:56.631Z,60.12
2023-04-02T07:07:59.006Z,59.91
2023-04-02T07:13:02.542Z,59.58
2023-04-02T07:18:05.392Z,58.30
2023-04-02T07:23:08.326Z,58.57
2023-04-02T07:28:10.570Z,56.79
2023-04-02T07:33:17.677Z,55.62
2023-04-02T07:38:20.512Z,55.01
2023-04-02T07:43:23.318Z,55.24
2023-04-02T07:48:28.097Z,56.57
2023-04-02T07:53:41.948Z,56.46
2023-04-02T07:58:44.348Z,55.94
2023-04-02T08:03:47.303Z,52.75
2023-04-02T08:08:50.521Z,50.52
2023-04-02T08:13:52.928Z,46.02
2023-04-02T08:18:55.557Z,42.61
2023-04-02T08:23:57.739Z,45.38
2023-04-02T08:29:00.007Z,47.54
2023-04-02T08:34:02.524Z,48.40
2023-04-02T08:39:06.532Z,51.73
2023-04-02T08:44:30.303Z,50.74
2023-04-02T08:49:38.072Z,49.38
2023-04-02T08:54:43.684Z,43.53
2023-04-02T08:59:47.193Z,37.08
2023-04-02T09:04:50.089Z,35.10
2023-04-02T09:09:52.628Z,39.28
2023-04-02T09:15:06.794Z,40.55
2023-04-02T09:20:19.127Z,44.86
2023-04-02T09:25:33.360Z,48.65
2023-04-02T09:30:51.489Z,49.36
2023-04-02T09:35:57.905Z,52.21
2023-04-02T09:41:18.664Z,51.69
2023-04-02T09:46:25.972Z,50.77
2023-04-02T09:51:34.378Z,49.89
2023-04-02T09:56:38.440Z,49.48
2023-04-02T10:02:01.943Z,47.48
2023-04-02T10:07:06.899Z,47.02
2023-04-02T10:12:14.390Z,49.84
2023-04-02T10:17:21.160Z,48.05
2023-04-02T10:22:23.520Z,50.12
2023-04-02T10:27:42.380Z,50.77
2023-04-02T10:33:00.413Z,51.36
2023-04-02T10:38:30.088Z,48.28
2023-04-02T10:43:41.592Z,46.75
2023-04-02T10:48:55.829Z,41.82
2023-04-02T10:54:14.055Z,43.93
2023-04-02T10:59:34.281Z,41.73
2023-04-02T11:04:45.072Z,35.24
2023-04-02T11:09:52.289Z,27.00
2023-04-02T11:14:56.296Z,23.64
2023-04-02T11:20:37.037Z,31.52
2023-04-02T11:25:41.456Z,31.51
2023-04-02T11:30:46.628Z,30.98
2023-04-02T11:35:48.910Z,31.76
2023-04-02T11:40:54.804Z,32.16
2023-04-02T11:45:59.498Z,27.81
2023-04-02T11:51:32.103Z,24.14
2023-04-02T11:56:49.079Z,21.61
2023-04-02T12:02:04.302Z,21.35
2023-04-02T12:07:21.721Z,20.76
2023-04-02T12:12:23.797Z,21.18
2023-04-02T12:17:38.082Z,21.98
2023-04-02T12:22:49.014Z,21.05
2023-04-02T12:28:09.504Z,21.58
2023-04-02T12:33:21.038Z,24.25
2023-04-02T12:38:24.455Z,29.42
2023-04-02T12:43:28.871Z,34.34
2023-04-02T12:48:32.416Z,24.42
2023-04-02T12:53:42.412Z,24.29
2023-04-02T12:58:53.836Z,24.84
2023-04-02T13:04:14.971Z,23.83
2023-04-02T13:09:33.983Z,22.77
2023-04-02T13:14:38.031Z,23.49
2023-04-02T13:19:40.234Z,23.48
2023-04-02T13:24:43.686Z,24.39
2023-04-02T13:29:46.500Z,20.29
2023-04-02T13:34:48.721Z,22.82
2023-04-02T13:39:50.885Z,23.72
2023-04-02T13:44:53.162Z,22.87
2023-04-02T13:49:55.275Z,25.39
2023-04-02T13:55:01.402Z,22.69
2023-04-02T14:00:05.013Z,21.83
2023-04-02T14:05:31.927Z,20.53
2023-04-02T14:10:37.095Z,22.96
2023-04-02T14:16:05.945Z,23.15
2023-04-02T14:21:31.352Z,24.84
2023-04-02T14:26:55.647Z,26.98
2023-04-02T14:32:03.038Z,26.70
2023-04-02T14:37:49.796Z,33.52
2023-04-02T14:43:10.568Z,32.05
2023-04-02T14:48:57.279Z,32.38
2023-04-02T14:54:13.361Z,41.57
2023-04-02T14:59:28.600Z,42.48
2023-04-02T15:04:41.557Z,47.72
2023-04-02T15:09:50.578Z,54.06
2023-04-02T15:15:02.422Z,58.71
2023-04-02T15:20:18.758Z,60.03
2023-04-02T15:25:40.216Z,66.90
2023-04-02T15:30:44.429Z,83.16
2023-04-02T15:36:05.981Z,87.96
2023-04-02T15:41:25.365Z,88.52
2023-04-02T15:46:46.295Z,86.68
2023-04-02T15:52:01.840Z,88.19
2023-04-02T15:57:39.546Z,85.12
2023-04-02T16:02:51.055Z,82.30
2023-04-02T16:08:12.171Z,83.58
2023-04-02T16:13:17.305Z,81.25
2023-04-02T16:18:51.965Z,77.54
2023-04-02T16:23:54.308Z,74.20
2023-04-02T16:29:12.628Z,73.10
2023-04-02T16:34:25.495Z,72.20
2023-04-02T16:39:50.724Z,71.37
2023-04-02T16:44:58.736Z,74.27
2023-04-02T16:50:12.949Z,74.63
2023-04-02T16:55:58.360Z,75.71
2023-04-02T17:01:21.812Z,76.87
2023-04-02T17:06:26.634Z,77.91
2023-04-02T17:12:01.131Z,78.43
2023-04-02T17:17:04.665Z,80.44
2023-04-02T17:22:07.748Z,71.78
2023-04-02T17:27:33.778Z,67.70
2023-04-02T17:32:37.055Z,66.54
2023-04-02T17:37:51.902Z,66.05
2023-04-02T17:43:12.285Z,63.65
2023-04-02T17:48:28.241Z,64.46
2023-04-02T17:53:42.296Z,64.00
2023-04-02T17:59:06.109Z,64.59
2023-04-02T18:04:18.114Z,64.34
2023-04-02T18:09:29.150Z,64.77
2023-04-02T18:14:55.864Z,65.43
2023-04-02T18:20:27.574Z,65.67
2023-04-02T18:25:45.964Z,65.91
2023-04-02T18:31:24.364Z,64.58
2023-04-02T18:36:38.060Z,63.37
2023-04-02T18:42:13.942Z,62.93
2023-04-02T18:47:40.936Z,62.52
2023-04-02T18:52:46.418Z,62.77
2023-04-02T18:58:04.039Z,62.46
2023-04-02T19:03:31.237Z,62.03
2023-04-02T19:08:40.366Z,62.67
2023-04-02T19:13:44.555Z,63.52
2023-04-02T19:19:19.716Z,63.74
2023-04-02T19:24:41.387Z,63.75
2023-04-02T19:30:12.949Z,63.12
2023-04-02T19:35:18.172Z,62.79
2023-04-02T19:40:33.573Z,63.17
2023-04-02T19:45:57.366Z,62.69
2023-04-02T19:50:59.881Z,62.31
2023-04-02T19:56:02.466Z,62.43
2023-04-02T20:01:05.024Z,62.14
2023-04-02T20:06:13.923Z,61.26
2023-04-02T20:11:16.473Z,61.06
2023-04-02T20:16:18.714Z,60.94
2023-04-02T20:21:23.171Z,60.23
2023-04-02T20:26:27.596Z,60.60
2023-04-02T20:31:30.377Z,60.48
2023-04-02T20:36:32.834Z,61.02
2023-04-02T20:41:35.009Z,61.19
2023-04-02T20:46:37.266Z,61.31
2023-04-02T20:51:39.528Z,61.12
2023-04-02T20:56:43.198Z,60.96
2023-04-02T21:01:46.018Z,61.33
2023-04-02T21:06:48.784Z,61.38
2023-04-02T21:11:51.037Z,62.43
2023-04-02T21:17:18.552Z,62.88
2023-04-02T21:22:26.388Z,64.04
2023-04-02T21:27:29.005Z,64.58
2023-04-02T21:32:33.851Z,64.88
2023-04-02T21:37:36.600Z,64.44
2023-04-02T21:42:38.697Z,64.95
2023-04-02T21:47:47.087Z,64.01
2023-04-02T21:52:49.312Z,62.90
2023-04-02T21:57:51.523Z,62.31
2023-04-02T22:02:53.917Z,62.12
2023-04-02T22:07:56.139Z,61.90
2023-04-02T22:12:58.274Z,61.98
2023-04-02T22:18:00.625Z,61.99
2023-04-02T22:23:02.824Z,62.22
2023-04-02T22:28:05.302Z,62.34
2023-04-02T22:33:07.620Z,62.30
2023-04-02T22:38:10.575Z,62.06
2023-04-02T22:43:12.759Z,62.40
2023-04-02T22:48:14.949Z,62.44
2023-04-02T22:53:17.295Z,61.97
2023-04-02T22:58:20.855Z,61.54
2023-04-02T23:08:44.372Z,61.59
2023-04-02T23:13:49.014Z,61.08
2023-04-02T23:18:54.612Z,61.46
2023-04-02T23:23:59.275Z,61.55
2023-04-02T23:29:05.895Z,60.86
2023-04-02T23:34:11.702Z,61.34
2023-04-02T23:39:20.537Z,61.16
2023-04-02T23:44:26.959Z,61.11
2023-04-02T23:49:29.525Z,61.53
2023-04-02T23:54:34.591Z,61.91
2023-04-02T23:59:37.289Z,61.96
